sensor_id;sensor_type;location;lat;lon;timestamp;temperature;humidity
30893;DHT22;17595;50.884;4.346;2022-07-01T00:01:32;16.50;99.90
30893;DHT22;17595;50.884;4.346;2022-07-01T00:03:57;16.50;99.90
30893;DHT22;17595;50.884;4.346;2022-07-01T00:06:24;16.50;99.90
30893;DHT22;17595;50.884;4.346;2022-07-01T00:08:50;16.50;99.90
30893;DHT22;17595;50.884;4.346;2022-07-01T00:11:16;16.50;99.90
30893;DHT22;17595;50.884;4.346;2022-07-01T00:13:42;16.50;99.90
30893;DHT22;17595;50.884;4.346;2022-07-01T00:16:07;16.50;99.90
30893;DHT22;17595;50.884;4.346;2022-07-01T00:18:33;16.50;99.90
30893;DHT22;17595;50.884;4.346;2022-07-01T00:20:59;16.50;99.90
30893;DHT22;17595;50.884;4.346;2022-07-01T00:23:27;16.50;99.90
30893;DHT22;17595;50.884;4.346;2022-07-01T00:25:53;16.50;99.90
30893;DHT22;17595;50.884;4.346;2022-07-01T00:28:19;16.50;99.90
30893;DHT22;17595;50.884;4.346;2022-07-01T00:30:44;16.50;99.90
30893;DHT22;17595;50.884;4.346;2022-07-01T00:33:10;16.40;99.90
30893;DHT22;17595;50.884;4.346;2022-07-01T00:35:36;16.40;99.90
30893;DHT22;17595;50.884;4.346;2022-07-01T00:38:02;16.30;99.90
30893;DHT22;17595;50.884;4.346;2022-07-01T00:40:29;16.10;99.90
30893;DHT22;17595;50.884;4.346;2022-07-01T00:42:55;16.00;99.90
30893;DHT22;17595;50.884;4.346;2022-07-01T00:45:20;16.00;99.90
30893;DHT22;17595;50.884;4.346;2022-07-01T00:47:46;16.10;99.90
30893;DHT22;17595;50.884;4.346;2022-07-01T00:50:14;16.20;99.90
30893;DHT22;17595;50.884;4.346;2022-07-01T00:52:41;16.30;99.90
30893;DHT22;17595;50.884;4.346;2022-07-01T00:55:09;16.30;99.90
30893;DHT22;17595;50.884;4.346;2022-07-01T00:57:37;16.30;99.90
30893;DHT22;17595;50.884;4.346;2022-07-01T01:00:09;16.40;99.90
30893;DHT22;17595;50.884;4.346;2022-07-01T01:02:36;16.40;99.90
30893;DHT22;17595;50.884;4.346;2022-07-01T01:05:06;16.60;99.90
30893;DHT22;17595;50.884;4.346;2022-07-01T01:07:32;16.50;99.90
30893;DHT22;17595;50.884;4.346;2022-07-01T01:09:59;16.40;99.90
30893;DHT22;17595;50.884;4.346;2022-07-01T01:12:26;16.40;99.90
30893;DHT22;17595;50.884;4.346;2022-07-01T01:14:52;16.30;99.90
30893;DHT22;17595;50.884;4.346;2022-07-01T01:17:18;16.40;99.90
30893;DHT22;17595;50.884;4.346;2022-07-01T01:19:45;16.40;99.90
30893;DHT22;17595;50.884;4.346;2022-07-01T01:22:14;16.40;99.90
30893;DHT22;17595;50.884;4.346;2022-07-01T01:24:41;16.40;99.90
30893;DHT22;17595;50.884;4.346;2022-07-01T01:27:07;16.40;99.90
30893;DHT22;17595;50.884;4.346;2022-07-01T01:29:35;16.50;99.90
30893;DHT22;17595;50.884;4.346;2022-07-01T01:32:01;16.60;99.90
30893;DHT22;17595;50.884;4.346;2022-07-01T01:34:27;16.60;99.90
30893;DHT22;17595;50.884;4.346;2022-07-01T01:36:53;16.60;99.90
30893;DHT22;17595;50.884;4.346;2022-07-01T01:39:19;16.60;99.90
30893;DHT22;17595;50.884;4.346;2022-07-01T01:41:45;16.50;99.90
30893;DHT22;17595;50.884;4.346;2022-07-01T01:44:11;16.60;99.90
30893;DHT22;17595;50.884;4.346;2022-07-01T01:46:36;16.60;99.90
30893;DHT22;17595;50.884;4.346;2022-07-01T01:49:04;16.60;99.90
30893;DHT22;17595;50.884;4.346;2022-07-01T01:51:30;16.60;99.90
30893;DHT22;17595;50.884;4.346;2022-07-01T01:53:56;16.60;99.90
30893;DHT22;17595;50.884;4.346;2022-07-01T01:56:22;16.60;99.90
30893;DHT22;17595;50.884;4.346;2022-07-01T01:58:48;16.60;99.90
30893;DHT22;17595;50.884;4.346;2022-07-01T02:01:16;16.70;99.90
30893;DHT22;17595;50.884;4.346;2022-07-01T02:03:43;16.70;99.90
30893;DHT22;17595;50.884;4.346;2022-07-01T02:06:10;16.70;99.90
30893;DHT22;17595;50.884;4.346;2022-07-01T02:08:36;16.60;99.90
30893;DHT22;17595;50.884;4.346;2022-07-01T02:11:02;16.70;99.90
30893;DHT22;17595;50.884;4.346;2022-07-01T02:13:28;16.80;99.90
30893;DHT22;17595;50.884;4.346;2022-07-01T02:15:54;16.70;99.90
30893;DHT22;17595;50.884;4.346;2022-07-01T02:18:19;16.70;99.90
30893;DHT22;17595;50.884;4.346;2022-07-01T02:20:45;16.70;99.90
30893;DHT22;17595;50.884;4.346;2022-07-01T02:23:11;16.60;99.90
30893;DHT22;17595;50.884;4.346;2022-07-01T02:25:37;16.70;99.90
30893;DHT22;17595;50.884;4.346;2022-07-01T02:28:03;16.60;99.90
30893;DHT22;17595;50.884;4.346;2022-07-01T02:30:29;16.60;99.90
30893;DHT22;17595;50.884;4.346;2022-07-01T02:32:56;16.40;99.90
30893;DHT22;17595;50.884;4.346;2022-07-01T02:35:21;16.40;99.90
30893;DHT22;17595;50.884;4.346;2022-07-01T02:37:47;16.40;99.90
30893;DHT22;17595;50.884;4.346;2022-07-01T02:40:13;16.30;99.90
30893;DHT22;17595;50.884;4.346;2022-07-01T02:42:39;16.30;99.90
30893;DHT22;17595;50.884;4.346;2022-07-01T02:45:06;16.20;99.90
30893;DHT22;17595;50.884;4.346;2022-07-01T02:47:36;16.30;99.90
30893;DHT22;17595;50.884;4.346;2022-07-01T02:50:04;16.20;99.90
30893;DHT22;17595;50.884;4.346;2022-07-01T02:52:30;16.20;99.90
30893;DHT22;17595;50.884;4.346;2022-07-01T02:54:56;16.20;99.90
30893;DHT22;17595;50.884;4.346;2022-07-01T02:57:22;16.00;99.90
30893;DHT22;17595;50.884;4.346;2022-07-01T02:59:48;16.10;99.90
30893;DHT22;17595;50.884;4.346;2022-07-01T03:02:13;16.20;99.90
30893;DHT22;17595;50.884;4.346;2022-07-01T03:04:39;16.30;99.90
30893;DHT22;17595;50.884;4.346;2022-07-01T03:07:04;16.20;99.90
30893;DHT22;17595;50.884;4.346;2022-07-01T03:09:30;16.20;99.90
30893;DHT22;17595;50.884;4.346;2022-07-01T03:11:56;16.20;99.90
30893;DHT22;17595;50.884;4.346;2022-07-01T03:14:21;16.20;99.90
30893;DHT22;17595;50.884;4.346;2022-07-01T03:16:47;16.30;99.90
30893;DHT22;17595;50.884;4.346;2022-07-01T03:19:13;16.30;99.90
30893;DHT22;17595;50.884;4.346;2022-07-01T03:21:39;16.20;99.90
30893;DHT22;17595;50.884;4.346;2022-07-01T03:24:05;16.10;99.90
30893;DHT22;17595;50.884;4.346;2022-07-01T03:26:31;16.00;99.90
30893;DHT22;17595;50.884;4.346;2022-07-01T03:28:57;16.00;99.90
30893;DHT22;17595;50.884;4.346;2022-07-01T03:31:22;16.20;99.90
30893;DHT22;17595;50.884;4.346;2022-07-01T03:33:48;16.20;99.90
30893;DHT22;17595;50.884;4.346;2022-07-01T03:36:13;16.30;99.90
30893;DHT22;17595;50.884;4.346;2022-07-01T03:38:39;16.40;99.90
30893;DHT22;17595;50.884;4.346;2022-07-01T03:41:05;16.30;99.90
30893;DHT22;17595;50.884;4.346;2022-07-01T03:43:30;16.40;99.90
30893;DHT22;17595;50.884;4.346;2022-07-01T03:45:56;16.40;99.90
30893;DHT22;17595;50.884;4.346;2022-07-01T03:48:22;16.40;99.90
30893;DHT22;17595;50.884;4.346;2022-07-01T03:50:47;16.40;99.90
30893;DHT22;17595;50.884;4.346;2022-07-01T03:53:13;16.50;99.90
30893;DHT22;17595;50.884;4.346;2022-07-01T03:55:57;16.50;99.90
30893;DHT22;17595;50.884;4.346;2022-07-01T03:58:23;16.60;99.90
30893;DHT22;17595;50.884;4.346;2022-07-01T04:00:49;16.50;99.90
30893;DHT22;17595;50.884;4.346;2022-07-01T04:03:14;16.50;99.90
30893;DHT22;17595;50.884;4.346;2022-07-01T04:05:40;16.40;99.90
30893;DHT22;17595;50.884;4.346;2022-07-01T04:08:07;16.50;99.90
30893;DHT22;17595;50.884;4.346;2022-07-01T04:10:37;16.50;99.90
30893;DHT22;17595;50.884;4.346;2022-07-01T04:13:03;16.50;99.90
30893;DHT22;17595;50.884;4.346;2022-07-01T04:15:29;16.50;99.90
30893;DHT22;17595;50.884;4.346;2022-07-01T04:17:55;16.40;99.90
30893;DHT22;17595;50.884;4.346;2022-07-01T04:20:21;16.40;99.90
30893;DHT22;17595;50.884;4.346;2022-07-01T04:22:46;16.30;99.90
30893;DHT22;17595;50.884;4.346;2022-07-01T04:25:12;16.30;99.90
30893;DHT22;17595;50.884;4.346;2022-07-01T04:27:38;16.40;99.90
30893;DHT22;17595;50.884;4.346;2022-07-01T04:30:04;16.30;99.90
30893;DHT22;17595;50.884;4.346;2022-07-01T04:32:31;16.30;99.90
30893;DHT22;17595;50.884;4.346;2022-07-01T04:34:57;16.30;99.90
30893;DHT22;17595;50.884;4.346;2022-07-01T04:37:23;16.30;99.90
30893;DHT22;17595;50.884;4.346;2022-07-01T04:39:48;16.30;99.90
30893;DHT22;17595;50.884;4.346;2022-07-01T04:42:14;16.30;99.90
30893;DHT22;17595;50.884;4.346;2022-07-01T04:44:40;16.20;99.90
30893;DHT22;17595;50.884;4.346;2022-07-01T04:47:06;16.10;99.90
30893;DHT22;17595;50.884;4.346;2022-07-01T04:49:32;16.10;99.90
30893;DHT22;17595;50.884;4.346;2022-07-01T04:51:58;16.10;99.90
30893;DHT22;17595;50.884;4.346;2022-07-01T04:54:24;16.10;99.90
30893;DHT22;17595;50.884;4.346;2022-07-01T04:56:53;16.20;99.90
30893;DHT22;17595;50.884;4.346;2022-07-01T04:59:19;16.20;99.90
30893;DHT22;17595;50.884;4.346;2022-07-01T05:01:46;16.20;99.90
30893;DHT22;17595;50.884;4.346;2022-07-01T05:04:16;16.20;99.90
30893;DHT22;17595;50.884;4.346;2022-07-01T05:06:41;16.20;99.90
30893;DHT22;17595;50.884;4.346;2022-07-01T05:09:07;16.10;99.90
30893;DHT22;17595;50.884;4.346;2022-07-01T05:11:33;16.20;99.90
30893;DHT22;17595;50.884;4.346;2022-07-01T05:13:59;16.30;99.90
30893;DHT22;17595;50.884;4.346;2022-07-01T05:16:25;16.30;99.90
30893;DHT22;17595;50.884;4.346;2022-07-01T05:18:51;16.30;99.90
30893;DHT22;17595;50.884;4.346;2022-07-01T05:21:35;16.30;99.90
30893;DHT22;17595;50.884;4.346;2022-07-01T05:24:19;16.30;99.90
30893;DHT22;17595;50.884;4.346;2022-07-01T05:26:45;16.30;99.90
30893;DHT22;17595;50.884;4.346;2022-07-01T05:29:11;16.40;99.90
30893;DHT22;17595;50.884;4.346;2022-07-01T05:31:37;16.40;99.90
30893;DHT22;17595;50.884;4.346;2022-07-01T05:34:02;16.40;99.90
30893;DHT22;17595;50.884;4.346;2022-07-01T05:36:28;16.40;99.90
30893;DHT22;17595;50.884;4.346;2022-07-01T05:38:54;16.40;99.90
30893;DHT22;17595;50.884;4.346;2022-07-01T05:41:19;16.20;99.90
30893;DHT22;17595;50.884;4.346;2022-07-01T05:43:45;16.10;99.90
30893;DHT22;17595;50.884;4.346;2022-07-01T05:46:11;16.20;99.90
30893;DHT22;17595;50.884;4.346;2022-07-01T05:48:36;16.30;99.90
30893;DHT22;17595;50.884;4.346;2022-07-01T05:51:02;16.40;99.90
30893;DHT22;17595;50.884;4.346;2022-07-01T05:53:28;16.50;99.90
30893;DHT22;17595;50.884;4.346;2022-07-01T05:55:54;16.60;99.90
30893;DHT22;17595;50.884;4.346;2022-07-01T05:58:20;16.60;99.90
30893;DHT22;17595;50.884;4.346;2022-07-01T06:00:45;16.60;99.90
30893;DHT22;17595;50.884;4.346;2022-07-01T06:03:12;16.70;99.90
30893;DHT22;17595;50.884;4.346;2022-07-01T06:05:38;16.70;99.90
30893;DHT22;17595;50.884;4.346;2022-07-01T06:08:04;16.80;99.90
30893;DHT22;17595;50.884;4.346;2022-07-01T06:10:31;16.90;99.90
30893;DHT22;17595;50.884;4.346;2022-07-01T06:12:57;17.10;99.90
30893;DHT22;17595;50.884;4.346;2022-07-01T06:15:23;17.10;99.90
30893;DHT22;17595;50.884;4.346;2022-07-01T06:17:49;17.10;99.90
30893;DHT22;17595;50.884;4.346;2022-07-01T06:20:15;17.00;99.90
30893;DHT22;17595;50.884;4.346;2022-07-01T06:22:41;16.80;99.90
30893;DHT22;17595;50.884;4.346;2022-07-01T06:25:07;16.90;99.90
30893;DHT22;17595;50.884;4.346;2022-07-01T06:27:40;17.10;99.90
30893;DHT22;17595;50.884;4.346;2022-07-01T06:30:07;17.20;99.90
30893;DHT22;17595;50.884;4.346;2022-07-01T06:32:33;17.20;99.90
30893;DHT22;17595;50.884;4.346;2022-07-01T06:34:58;17.30;99.90
30893;DHT22;17595;50.884;4.346;2022-07-01T06:37:24;17.10;99.90
30893;DHT22;17595;50.884;4.346;2022-07-01T06:39:50;16.90;99.90
30893;DHT22;17595;50.884;4.346;2022-07-01T06:42:15;17.00;99.90
30893;DHT22;17595;50.884;4.346;2022-07-01T06:44:41;17.30;99.90
30893;DHT22;17595;50.884;4.346;2022-07-01T06:47:07;17.40;99.90
30893;DHT22;17595;50.884;4.346;2022-07-01T06:49:33;17.60;99.90
30893;DHT22;17595;50.884;4.346;2022-07-01T06:51:58;17.40;99.90
30893;DHT22;17595;50.884;4.346;2022-07-01T06:54:24;17.50;99.90
30893;DHT22;17595;50.884;4.346;2022-07-01T06:56:49;17.40;99.90
30893;DHT22;17595;50.884;4.346;2022-07-01T06:59:15;17.50;99.90
30893;DHT22;17595;50.884;4.346;2022-07-01T07:01:41;17.70;99.90
30893;DHT22;17595;50.884;4.346;2022-07-01T07:04:07;17.90;99.90
30893;DHT22;17595;50.884;4.346;2022-07-01T07:06:33;17.50;99.90
30893;DHT22;17595;50.884;4.346;2022-07-01T07:08:58;17.60;99.90
30893;DHT22;17595;50.884;4.346;2022-07-01T07:11:24;17.60;99.90
30893;DHT22;17595;50.884;4.346;2022-07-01T07:13:50;17.40;99.90
30893;DHT22;17595;50.884;4.346;2022-07-01T07:16:16;17.20;99.90
30893;DHT22;17595;50.884;4.346;2022-07-01T07:18:46;17.00;99.90
30893;DHT22;17595;50.884;4.346;2022-07-01T07:21:12;17.40;99.90
30893;DHT22;17595;50.884;4.346;2022-07-01T07:23:38;17.80;99.90
30893;DHT22;17595;50.884;4.346;2022-07-01T07:26:03;17.90;99.90
30893;DHT22;17595;50.884;4.346;2022-07-01T07:28:29;18.00;99.90
30893;DHT22;17595;50.884;4.346;2022-07-01T07:30:55;18.20;99.90
30893;DHT22;17595;50.884;4.346;2022-07-01T07:33:20;18.40;99.90
30893;DHT22;17595;50.884;4.346;2022-07-01T07:35:46;18.50;99.90
30893;DHT22;17595;50.884;4.346;2022-07-01T07:38:12;18.70;99.90
30893;DHT22;17595;50.884;4.346;2022-07-01T07:40:38;19.00;99.90
30893;DHT22;17595;50.884;4.346;2022-07-01T07:43:04;18.90;99.90
30893;DHT22;17595;50.884;4.346;2022-07-01T07:45:31;19.00;99.90
30893;DHT22;17595;50.884;4.346;2022-07-01T07:47:56;19.00;99.90
30893;DHT22;17595;50.884;4.346;2022-07-01T07:50:22;18.90;99.90
30893;DHT22;17595;50.884;4.346;2022-07-01T07:52:48;19.10;99.90
30893;DHT22;17595;50.884;4.346;2022-07-01T07:55:14;19.00;99.90
30893;DHT22;17595;50.884;4.346;2022-07-01T07:57:40;19.00;99.90
30893;DHT22;17595;50.884;4.346;2022-07-01T08:00:08;19.00;99.90
30893;DHT22;17595;50.884;4.346;2022-07-01T08:02:34;18.90;99.90
30893;DHT22;17595;50.884;4.346;2022-07-01T08:05:00;18.60;99.90
30893;DHT22;17595;50.884;4.346;2022-07-01T08:07:26;18.70;99.90
30893;DHT22;17595;50.884;4.346;2022-07-01T08:09:51;19.00;99.90
30893;DHT22;17595;50.884;4.346;2022-07-01T08:12:17;18.90;99.90
30893;DHT22;17595;50.884;4.346;2022-07-01T08:14:43;18.80;99.90
30893;DHT22;17595;50.884;4.346;2022-07-01T08:17:09;18.90;99.90
30893;DHT22;17595;50.884;4.346;2022-07-01T08:19:35;18.90;99.90
30893;DHT22;17595;50.884;4.346;2022-07-01T08:22:00;19.10;99.90
30893;DHT22;17595;50.884;4.346;2022-07-01T08:24:26;19.30;99.90
30893;DHT22;17595;50.884;4.346;2022-07-01T08:26:52;19.40;99.90
30893;DHT22;17595;50.884;4.346;2022-07-01T08:29:18;19.20;99.90
30893;DHT22;17595;50.884;4.346;2022-07-01T08:31:44;19.30;99.90
30893;DHT22;17595;50.884;4.346;2022-07-01T08:34:09;19.30;99.90
30893;DHT22;17595;50.884;4.346;2022-07-01T08:36:35;19.20;99.90
30893;DHT22;17595;50.884;4.346;2022-07-01T08:39:01;19.10;99.90
30893;DHT22;17595;50.884;4.346;2022-07-01T08:41:28;19.30;99.90
30893;DHT22;17595;50.884;4.346;2022-07-01T08:43:53;19.40;99.90
30893;DHT22;17595;50.884;4.346;2022-07-01T08:46:19;19.40;99.90
30893;DHT22;17595;50.884;4.346;2022-07-01T08:48:46;19.60;99.90
30893;DHT22;17595;50.884;4.346;2022-07-01T08:51:12;19.70;99.90
30893;DHT22;17595;50.884;4.346;2022-07-01T08:53:38;19.90;99.90
30893;DHT22;17595;50.884;4.346;2022-07-01T08:56:04;20.00;99.90
30893;DHT22;17595;50.884;4.346;2022-07-01T08:58:49;19.90;99.90
30893;DHT22;17595;50.884;4.346;2022-07-01T09:01:20;20.00;99.90
30893;DHT22;17595;50.884;4.346;2022-07-01T09:03:51;20.10;99.90
30893;DHT22;17595;50.884;4.346;2022-07-01T09:06:27;20.30;99.90
30893;DHT22;17595;50.884;4.346;2022-07-01T09:08:53;20.40;99.90
30893;DHT22;17595;50.884;4.346;2022-07-01T09:11:24;20.20;99.90
30893;DHT22;17595;50.884;4.346;2022-07-01T09:14:11;20.20;99.90
30893;DHT22;17595;50.884;4.346;2022-07-01T09:16:44;20.00;99.90
30893;DHT22;17595;50.884;4.346;2022-07-01T09:19:11;20.30;99.90
30893;DHT22;17595;50.884;4.346;2022-07-01T09:21:37;20.30;99.90
30893;DHT22;17595;50.884;4.346;2022-07-01T09:24:46;20.10;99.90
30893;DHT22;17595;50.884;4.346;2022-07-01T09:27:00;20.00;99.90
30893;DHT22;17595;50.884;4.346;2022-07-01T09:29:35;19.50;99.90
30893;DHT22;17595;50.884;4.346;2022-07-01T09:32:03;19.50;99.90
30893;DHT22;17595;50.884;4.346;2022-07-01T09:34:34;19.70;99.90
30893;DHT22;17595;50.884;4.346;2022-07-01T09:37:01;19.80;99.90
30893;DHT22;17595;50.884;4.346;2022-07-01T09:39:27;20.20;99.90
30893;DHT22;17595;50.884;4.346;2022-07-01T09:41:57;20.10;99.90
30893;DHT22;17595;50.884;4.346;2022-07-01T09:44:23;19.30;99.90
30893;DHT22;17595;50.884;4.346;2022-07-01T09:46:53;19.10;99.90
30893;DHT22;17595;50.884;4.346;2022-07-01T09:49:19;18.90;99.90
30893;DHT22;17595;50.884;4.346;2022-07-01T09:51:44;19.20;99.90
30893;DHT22;17595;50.884;4.346;2022-07-01T09:54:12;19.50;99.90
30893;DHT22;17595;50.884;4.346;2022-07-01T09:56:38;19.40;99.90
30893;DHT22;17595;50.884;4.346;2022-07-01T09:59:04;19.60;99.90
30893;DHT22;17595;50.884;4.346;2022-07-01T10:01:31;20.00;99.90
30893;DHT22;17595;50.884;4.346;2022-07-01T10:03:59;20.20;99.90
30893;DHT22;17595;50.884;4.346;2022-07-01T10:09:26;20.70;99.90
30893;DHT22;17595;50.884;4.346;2022-07-01T10:14:29;21.10;99.90
30893;DHT22;17595;50.884;4.346;2022-07-01T10:16:55;21.30;99.90
30893;DHT22;17595;50.884;4.346;2022-07-01T10:21:50;21.50;99.90
30893;DHT22;17595;50.884;4.346;2022-07-01T10:24:18;21.30;99.90
30893;DHT22;17595;50.884;4.346;2022-07-01T10:26:45;20.90;99.90
30893;DHT22;17595;50.884;4.346;2022-07-01T10:31:53;20.30;99.90
30893;DHT22;17595;50.884;4.346;2022-07-01T10:34:20;20.20;99.90
30893;DHT22;17595;50.884;4.346;2022-07-01T10:37:00;19.70;99.90
30893;DHT22;17595;50.884;4.346;2022-07-01T10:39:26;19.30;99.90
30893;DHT22;17595;50.884;4.346;2022-07-01T10:44:19;19.70;99.90
30893;DHT22;17595;50.884;4.346;2022-07-01T10:59:53;20.50;99.90
30893;DHT22;17595;50.884;4.346;2022-07-01T11:02:21;20.20;99.90
30893;DHT22;17595;50.884;4.346;2022-07-01T11:04:48;20.20;99.90
30893;DHT22;17595;50.884;4.346;2022-07-01T11:07:14;20.30;99.90
30893;DHT22;17595;50.884;4.346;2022-07-01T11:09:40;20.30;99.90
30893;DHT22;17595;50.884;4.346;2022-07-01T11:12:06;20.20;99.90
30893;DHT22;17595;50.884;4.346;2022-07-01T11:14:37;20.30;99.90
30893;DHT22;17595;50.884;4.346;2022-07-01T11:17:03;20.40;99.90
30893;DHT22;17595;50.884;4.346;2022-07-01T11:19:29;20.40;99.90
30893;DHT22;17595;50.884;4.346;2022-07-01T11:21:55;20.40;99.90
30893;DHT22;17595;50.884;4.346;2022-07-01T11:24:22;20.60;99.90
30893;DHT22;17595;50.884;4.346;2022-07-01T11:26:48;20.80;99.90
30893;DHT22;17595;50.884;4.346;2022-07-01T11:29:23;20.90;99.90
30893;DHT22;17595;50.884;4.346;2022-07-01T11:31:49;20.90;99.90
30893;DHT22;17595;50.884;4.346;2022-07-01T11:34:16;21.20;99.90
30893;DHT22;17595;50.884;4.346;2022-07-01T11:36:44;21.20;99.90
30893;DHT22;17595;50.884;4.346;2022-07-01T11:39:28;21.50;99.90
30893;DHT22;17595;50.884;4.346;2022-07-01T11:42:00;21.40;99.90
30893;DHT22;17595;50.884;4.346;2022-07-01T11:44:35;21.30;99.90
30893;DHT22;17595;50.884;4.346;2022-07-01T11:47:10;21.40;99.90
30893;DHT22;17595;50.884;4.346;2022-07-01T11:49:44;21.60;99.90
30893;DHT22;17595;50.884;4.346;2022-07-01T11:52:11;21.60;99.90
30893;DHT22;17595;50.884;4.346;2022-07-01T11:54:38;21.60;99.90
30893;DHT22;17595;50.884;4.346;2022-07-01T11:57:19;21.40;99.90
30893;DHT22;17595;50.884;4.346;2022-07-01T11:59:46;21.00;99.90
30893;DHT22;17595;50.884;4.346;2022-07-01T12:02:13;21.00;99.90
30893;DHT22;17595;50.884;4.346;2022-07-01T12:04:40;21.30;99.90
30893;DHT22;17595;50.884;4.346;2022-07-01T12:07:07;21.80;99.90
30893;DHT22;17595;50.884;4.346;2022-07-01T12:09:33;21.90;99.90
30893;DHT22;17595;50.884;4.346;2022-07-01T12:11:59;21.70;99.90
30893;DHT22;17595;50.884;4.346;2022-07-01T12:14:27;21.60;99.90
30893;DHT22;17595;50.884;4.346;2022-07-01T12:16:58;21.60;99.90
30893;DHT22;17595;50.884;4.346;2022-07-01T12:19:40;21.70;99.90
30893;DHT22;17595;50.884;4.346;2022-07-01T12:22:11;21.50;99.90
30893;DHT22;17595;50.884;4.346;2022-07-01T12:24:37;21.20;99.90
30893;DHT22;17595;50.884;4.346;2022-07-01T12:27:05;21.20;99.90
30893;DHT22;17595;50.884;4.346;2022-07-01T12:30:05;21.00;99.90
30893;DHT22;17595;50.884;4.346;2022-07-01T12:32:31;21.30;99.90
30893;DHT22;17595;50.884;4.346;2022-07-01T12:35:00;21.10;99.90
30893;DHT22;17595;50.884;4.346;2022-07-01T12:37:29;21.20;99.90
30893;DHT22;17595;50.884;4.346;2022-07-01T12:40:03;21.30;99.90
30893;DHT22;17595;50.884;4.346;2022-07-01T12:42:31;21.70;99.90
30893;DHT22;17595;50.884;4.346;2022-07-01T12:44:59;21.80;99.90
30893;DHT22;17595;50.884;4.346;2022-07-01T12:47:30;21.70;99.90
30893;DHT22;17595;50.884;4.346;2022-07-01T12:50:22;21.50;99.90
30893;DHT22;17595;50.884;4.346;2022-07-01T12:55:23;21.40;99.90
30893;DHT22;17595;50.884;4.346;2022-07-01T12:57:50;21.50;99.90
30893;DHT22;17595;50.884;4.346;2022-07-01T13:00:18;21.40;99.90
30893;DHT22;17595;50.884;4.346;2022-07-01T13:02:44;21.50;99.90
30893;DHT22;17595;50.884;4.346;2022-07-01T13:05:10;21.80;99.90
30893;DHT22;17595;50.884;4.346;2022-07-01T13:07:36;22.20;99.90
30893;DHT22;17595;50.884;4.346;2022-07-01T13:10:03;22.60;99.90
30893;DHT22;17595;50.884;4.346;2022-07-01T13:12:30;22.70;99.90
30893;DHT22;17595;50.884;4.346;2022-07-01T13:14:55;22.70;99.90
30893;DHT22;17595;50.884;4.346;2022-07-01T13:17:23;22.50;99.90
30893;DHT22;17595;50.884;4.346;2022-07-01T13:19:49;22.70;99.90
30893;DHT22;17595;50.884;4.346;2022-07-01T13:22:15;22.90;99.90
30893;DHT22;17595;50.884;4.346;2022-07-01T13:24:40;22.80;99.90
30893;DHT22;17595;50.884;4.346;2022-07-01T13:27:06;23.10;99.90
30893;DHT22;17595;50.884;4.346;2022-07-01T13:29:32;23.10;99.90
30893;DHT22;17595;50.884;4.346;2022-07-01T13:31:57;23.20;99.90
30893;DHT22;17595;50.884;4.346;2022-07-01T13:34:23;23.40;99.90
30893;DHT22;17595;50.884;4.346;2022-07-01T13:36:49;23.40;99.90
30893;DHT22;17595;50.884;4.346;2022-07-01T13:39:15;23.00;99.90
30893;DHT22;17595;50.884;4.346;2022-07-01T13:41:40;23.00;99.90
30893;DHT22;17595;50.884;4.346;2022-07-01T13:44:06;22.20;99.90
30893;DHT22;17595;50.884;4.346;2022-07-01T13:46:32;21.60;99.90
30893;DHT22;17595;50.884;4.346;2022-07-01T13:48:57;21.40;99.90
30893;DHT22;17595;50.884;4.346;2022-07-01T13:51:23;21.50;99.90
30893;DHT22;17595;50.884;4.346;2022-07-01T13:53:49;21.80;99.90
30893;DHT22;17595;50.884;4.346;2022-07-01T13:56:14;22.10;99.90
30893;DHT22;17595;50.884;4.346;2022-07-01T13:58:40;22.40;99.90
30893;DHT22;17595;50.884;4.346;2022-07-01T14:01:06;22.40;99.90
30893;DHT22;17595;50.884;4.346;2022-07-01T14:03:31;22.40;99.90
30893;DHT22;17595;50.884;4.346;2022-07-01T14:05:57;22.80;99.90
30893;DHT22;17595;50.884;4.346;2022-07-01T14:08:22;22.90;99.90
30893;DHT22;17595;50.884;4.346;2022-07-01T14:10:48;23.10;99.90
30893;DHT22;17595;50.884;4.346;2022-07-01T14:13:14;23.30;99.90
30893;DHT22;17595;50.884;4.346;2022-07-01T14:15:39;22.60;99.90
30893;DHT22;17595;50.884;4.346;2022-07-01T14:18:05;21.50;99.90
30893;DHT22;17595;50.884;4.346;2022-07-01T14:20:31;20.80;99.90
30893;DHT22;17595;50.884;4.346;2022-07-01T14:22:56;20.40;99.90
30893;DHT22;17595;50.884;4.346;2022-07-01T14:25:22;20.40;99.90
30893;DHT22;17595;50.884;4.346;2022-07-01T14:27:48;20.60;99.90
30893;DHT22;17595;50.884;4.346;2022-07-01T14:30:15;20.40;99.90
30893;DHT22;17595;50.884;4.346;2022-07-01T14:32:41;20.40;99.90
30893;DHT22;17595;50.884;4.346;2022-07-01T14:35:07;20.30;99.90
30893;DHT22;17595;50.884;4.346;2022-07-01T14:37:34;20.40;99.90
30893;DHT22;17595;50.884;4.346;2022-07-01T14:40:00;20.50;99.90
30893;DHT22;17595;50.884;4.346;2022-07-01T14:42:27;20.60;99.90
30893;DHT22;17595;50.884;4.346;2022-07-01T14:44:55;20.50;99.90
30893;DHT22;17595;50.884;4.346;2022-07-01T14:47:22;20.50;99.90
30893;DHT22;17595;50.884;4.346;2022-07-01T14:49:48;20.60;99.90
30893;DHT22;17595;50.884;4.346;2022-07-01T14:52:15;20.80;99.90
30893;DHT22;17595;50.884;4.346;2022-07-01T14:54:43;20.90;99.90
30893;DHT22;17595;50.884;4.346;2022-07-01T14:57:08;20.80;99.90
30893;DHT22;17595;50.884;4.346;2022-07-01T14:59:34;20.60;99.90
30893;DHT22;17595;50.884;4.346;2022-07-01T15:02:02;20.60;99.90
30893;DHT22;17595;50.884;4.346;2022-07-01T15:04:32;20.60;99.90
30893;DHT22;17595;50.884;4.346;2022-07-01T15:06:58;20.60;99.90
30893;DHT22;17595;50.884;4.346;2022-07-01T15:09:24;21.00;99.90
30893;DHT22;17595;50.884;4.346;2022-07-01T15:11:50;21.40;99.90
30893;DHT22;17595;50.884;4.346;2022-07-01T15:14:16;21.40;99.90
30893;DHT22;17595;50.884;4.346;2022-07-01T15:16:41;21.20;99.90
30893;DHT22;17595;50.884;4.346;2022-07-01T15:19:07;21.20;99.90
30893;DHT22;17595;50.884;4.346;2022-07-01T15:21:33;21.30;99.90
30893;DHT22;17595;50.884;4.346;2022-07-01T15:23:59;21.30;99.90
30893;DHT22;17595;50.884;4.346;2022-07-01T15:26:25;21.70;99.90
30893;DHT22;17595;50.884;4.346;2022-07-01T15:28:50;21.60;99.90
30893;DHT22;17595;50.884;4.346;2022-07-01T15:31:17;21.50;99.90
30893;DHT22;17595;50.884;4.346;2022-07-01T15:33:43;21.60;99.90
30893;DHT22;17595;50.884;4.346;2022-07-01T15:36:09;21.70;99.90
30893;DHT22;17595;50.884;4.346;2022-07-01T15:38:39;21.60;99.90
30893;DHT22;17595;50.884;4.346;2022-07-01T15:41:05;21.70;99.90
30893;DHT22;17595;50.884;4.346;2022-07-01T15:43:34;22.10;99.90
30893;DHT22;17595;50.884;4.346;2022-07-01T15:46:00;22.60;99.90
30893;DHT22;17595;50.884;4.346;2022-07-01T15:48:26;22.70;99.90
30893;DHT22;17595;50.884;4.346;2022-07-01T15:50:52;23.00;99.90
30893;DHT22;17595;50.884;4.346;2022-07-01T15:53:19;23.30;99.90
30893;DHT22;17595;50.884;4.346;2022-07-01T15:55:47;23.70;99.90
30893;DHT22;17595;50.884;4.346;2022-07-01T15:58:14;23.70;99.90